Time;durP1;ratioP1;P1;durP2;ratioP2;P2;SDS_P1;SDS_P2;PMS_P1;PMS_P2;Temp;Humidity;BMP_temperature;BMP_pressure;BME280_temperature;BME280_humidity;BME280_pressure;Samples;Min_cycle;Max_cycle;Signal;HPM_P1;HPM_P2
2023/05/14 00:00:35;;;;;;;16.50;10.50;;;;;;;;;;6326536;28;20161;-77
2023/05/14 00:03:36;;;;;;;20.13;9.87;;;;;;;;;;6333233;28;20770;-78
2023/05/14 00:06:36;;;;;;;25.50;10.37;;;;;;;;;;6325658;28;20736;-78
2023/05/14 00:09:36;;;;;;;21.73;10.23;;;;;;;;;;6329452;27;20273;-78
2023/05/14 00:12:36;;;;;;;21.40;10.20;;;;;;;;;;6323384;28;20488;-78
2023/05/14 00:15:37;;;;;;;22.42;11.50;;;;;;;;;;6324848;28;20478;-78
2023/05/14 00:18:37;;;;;;;14.77;9.97;;;;;;;;;;6342443;28;20121;-78
2023/05/14 00:21:37;;;;;;;17.25;9.65;;;;;;;;;;6334179;28;20027;-78
2023/05/14 00:24:37;;;;;;;13.25;9.00;;;;;;;;;;6302829;28;20051;-78
2023/05/14 00:27:38;;;;;;;15.52;9.60;;;;;;;;;;6319945;28;20012;-77
2023/05/14 00:30:38;;;;;;;15.87;10.07;;;;;;;;;;6307859;28;20030;-77
2023/05/14 00:33:39;;;;;;;19.38;9.80;;;;;;;;;;6344033;28;20015;-77
2023/05/14 00:36:39;;;;;;;18.92;8.93;;;;;;;;;;6337074;28;20043;-77
2023/05/14 00:39:39;;;;;;;19.63;10.88;;;;;;;;;;6310390;28;20012;-77
2023/05/14 00:42:39;;;;;;;17.92;10.57;;;;;;;;;;6334310;28;20016;-77
2023/05/14 00:45:40;;;;;;;16.50;9.68;;;;;;;;;;6338059;28;20490;-77
2023/05/14 00:48:40;;;;;;;13.63;9.73;;;;;;;;;;6322093;28;20039;-77
2023/05/14 00:51:41;;;;;;;17.77;9.98;;;;;;;;;;6321231;28;20027;-80
2023/05/14 00:54:41;;;;;;;15.68;9.45;;;;;;;;;;6340009;28;20104;-80
2023/05/14 00:57:42;;;;;;;16.48;9.27;;;;;;;;;;6331289;28;20036;-80
2023/05/14 01:00:42;;;;;;;17.83;9.93;;;;;;;;;;6343714;28;20045;-80
2023/05/14 01:03:43;;;;;;;17.90;9.70;;;;;;;;;;6333157;28;20088;-80
2023/05/14 01:06:53;;;;;;;17.13;11.32;;;;;;;;;;6331301;28;20114;-80
2023/05/14 01:10:01;;;;;;;21.50;10.88;;;;;;;;;;6345620;27;20669;-80
2023/05/14 01:13:21;;;;;;;21.73;11.00;;;;;;;;;;6331262;28;20035;-79
2023/05/14 01:16:23;;;;;;;16.52;9.43;;;;;;;;;;6335822;28;20051;-80
2023/05/14 01:19:24;;;;;;;;;;;;;;;;;;6311962;28;20103;-80
2023/05/14 01:22:24;;;;;;;17.67;9.93;;;;;;;;;;6301241;28;20377;-80
2023/05/14 01:25:24;;;;;;;15.73;9.37;;;;;;;;;;6329595;28;20023;-80
2023/05/14 01:28:27;;;;;;;17.02;10.10;;;;;;;;;;6335586;28;20262;-80
2023/05/14 01:31:31;;;;;;;18.10;9.45;;;;;;;;;;6324407;28;20023;-80
2023/05/14 01:34:31;;;;;;;19.67;10.52;;;;;;;;;;6326032;28;20069;-79
2023/05/14 01:37:32;;;;;;;18.33;11.32;;;;;;;;;;6319778;28;20036;-79
2023/05/14 01:40:35;;;;;;;17.73;10.33;;;;;;;;;;6337249;28;20024;-80
2023/05/14 01:43:36;;;;;;;17.33;11.20;;;;;;;;;;6325532;28;20246;-80
2023/05/14 01:46:36;;;;;;;16.85;10.13;;;;;;;;;;6319976;28;20493;-79
2023/05/14 01:49:36;;;;;;;14.45;9.73;;;;;;;;;;6332052;28;20056;-77
2023/05/14 01:52:37;;;;;;;17.63;9.88;;;;;;;;;;6317179;28;20020;-79
2023/05/14 01:55:37;;;;;;;18.53;9.60;;;;;;;;;;6328256;28;20091;-80
2023/05/14 01:58:37;;;;;;;21.60;9.83;;;;;;;;;;6324777;28;20518;-80
2023/05/14 02:01:37;;;;;;;16.83;10.90;;;;;;;;;;6332664;28;20104;-77
2023/05/14 02:04:38;;;;;;;20.37;11.67;;;;;;;;;;6342271;28;20257;-77
2023/05/14 02:07:39;;;;;;;19.27;10.25;;;;;;;;;;6328451;28;20266;-77
2023/05/14 02:10:40;;;;;;;18.48;10.30;;;;;;;;;;6324410;28;20031;-77
2023/05/14 02:13:41;;;;;;;19.90;11.77;;;;;;;;;;6319389;28;20032;-76
2023/05/14 02:16:41;;;;;;;21.70;10.70;;;;;;;;;;6325803;28;20372;-77
2023/05/14 02:19:41;;;;;;;17.23;10.80;;;;;;;;;;6339499;28;20028;-77
2023/05/14 02:22:44;;;;;;;19.83;10.10;;;;;;;;;;6335395;28;20022;-77
2023/05/14 02:25:44;;;;;;;18.60;11.55;;;;;;;;;;6328243;28;20402;-77
2023/05/14 02:28:44;;;;;;;17.90;9.93;;;;;;;;;;6318134;28;20103;-77
2023/05/14 02:31:45;;;;;;;19.33;10.82;;;;;;;;;;6309409;28;20045;-77
2023/05/14 02:34:46;;;;;;;14.75;9.32;;;;;;;;;;6329333;28;20020;-77
2023/05/14 02:37:46;;;;;;;15.15;9.98;;;;;;;;;;6309970;28;20497;-77
2023/05/14 02:40:47;;;;;;;18.33;10.47;;;;;;;;;;6328611;28;20084;-77
2023/05/14 02:43:47;;;;;;;17.47;9.80;;;;;;;;;;6335152;28;20289;-77
2023/05/14 02:46:47;;;;;;;17.02;10.25;;;;;;;;;;6333167;28;20773;-77
2023/05/14 02:49:47;;;;;;;21.30;10.97;;;;;;;;;;6337721;28;20313;-77
2023/05/14 02:52:47;;;;;;;18.17;10.93;;;;;;;;;;6323812;28;20763;-77
2023/05/14 02:55:48;;;;;;;18.60;10.77;;;;;;;;;;6336846;28;20030;-77
2023/05/14 02:58:48;;;;;;;18.07;10.13;;;;;;;;;;6340179;28;20292;-78
2023/05/14 03:01:49;;;;;;;22.67;11.00;;;;;;;;;;6321060;28;20667;-80
2023/05/14 03:04:49;;;;;;;23.15;12.27;;;;;;;;;;6335656;28;20019;-80
2023/05/14 03:07:50;;;;;;;17.52;11.75;;;;;;;;;;6329639;28;20027;-80
2023/05/14 03:10:50;;;;;;;19.77;12.60;;;;;;;;;;6310512;28;20034;-77
2023/05/14 03:13:50;;;;;;;19.17;11.53;;;;;;;;;;6336213;28;20103;-77
2023/05/14 03:16:51;;;;;;;21.42;12.15;;;;;;;;;;6334531;28;20273;-77
2023/05/14 03:19:51;;;;;;;20.58;10.84;;;;;;;;;;6329070;28;20471;-77
2023/05/14 03:22:51;;;;;;;19.67;12.07;;;;;;;;;;6323161;28;20028;-77
2023/05/14 03:25:51;;;;;;;22.30;12.43;;;;;;;;;;6327620;28;20888;-77
2023/05/14 03:28:51;;;;;;;18.30;10.85;;;;;;;;;;6327494;28;20260;-77
2023/05/14 03:31:53;;;;;;;19.73;11.25;;;;;;;;;;6319482;28;20085;-77
2023/05/14 03:34:53;;;;;;;20.02;10.77;;;;;;;;;;6330733;28;20023;-77
2023/05/14 03:37:53;;;;;;;18.75;11.85;;;;;;;;;;6336011;28;20020;-77
2023/05/14 03:40:53;;;;;;;24.00;12.10;;;;;;;;;;6327423;28;20019;-77
2023/05/14 03:43:54;;;;;;;25.87;12.63;;;;;;;;;;6336457;28;20285;-77
2023/05/14 03:46:54;;;;;;;21.00;12.90;;;;;;;;;;6328172;28;20257;-77
2023/05/14 03:49:55;;;;;;;18.50;12.52;;;;;;;;;;6314774;28;20456;-77
2023/05/14 03:52:55;;;;;;;19.58;12.05;;;;;;;;;;6332151;28;20024;-77
2023/05/14 03:55:55;;;;;;;16.80;10.97;;;;;;;;;;6324707;28;20020;-77
2023/05/14 03:58:56;;;;;;;20.93;10.90;;;;;;;;;;6311761;28;20273;-77
2023/05/14 04:01:56;;;;;;;20.80;11.63;;;;;;;;;;6328671;28;20293;-77
2023/05/14 04:04:56;;;;;;;18.50;9.84;;;;;;;;;;6317088;28;20474;-77
2023/05/14 04:07:57;;;;;;;19.93;10.77;;;;;;;;;;6315680;28;20108;-77
2023/05/14 04:10:57;;;;;;;15.00;10.27;;;;;;;;;;6327103;28;20349;-77
2023/05/14 04:13:57;;;;;;;18.20;10.33;;;;;;;;;;6331295;28;20023;-77
2023/05/14 04:16:57;;;;;;;14.95;9.30;;;;;;;;;;6326924;28;20270;-77
2023/05/14 04:19:58;;;;;;;15.83;9.20;;;;;;;;;;6343873;28;20020;-77
2023/05/14 04:22:58;;;;;;;17.50;8.82;;;;;;;;;;6334625;28;20027;-77
2023/05/14 04:25:58;;;;;;;15.60;9.13;;;;;;;;;;6324015;28;20673;-77
2023/05/14 04:29:01;;;;;;;15.70;9.55;;;;;;;;;;6323849;28;20046;-77
2023/05/14 04:32:01;;;;;;;16.48;8.35;;;;;;;;;;6338296;28;20023;-77
2023/05/14 04:35:03;;;;;;;13.20;8.47;;;;;;;;;;6335530;28;20370;-77
2023/05/14 04:38:03;;;;;;;15.40;9.55;;;;;;;;;;6330520;28;20795;-77
2023/05/14 04:41:03;;;;;;;14.35;9.13;;;;;;;;;;6329502;28;20020;-77
2023/05/14 04:44:04;;;;;;;14.48;8.27;;;;;;;;;;6338888;28;20470;-77
2023/05/14 04:47:05;;;;;;;15.68;8.00;;;;;;;;;;6332058;27;20023;-77
2023/05/14 04:50:07;;;;;;;14.13;8.48;;;;;;;;;;6331917;27;20169;-77
2023/05/14 04:53:07;;;;;;;13.73;7.00;;;;;;;;;;6327087;27;20027;-77
2023/05/14 04:56:07;;;;;;;19.93;8.20;;;;;;;;;;6329890;28;20134;-77
2023/05/14 04:59:08;;;;;;;11.70;7.33;;;;;;;;;;6323517;28;20129;-77
2023/05/14 05:02:08;;;;;;;13.53;7.20;;;;;;;;;;6332880;28;20332;-77
2023/05/14 05:05:08;;;;;;;13.43;7.25;;;;;;;;;;6321947;28;20704;-77
2023/05/14 05:08:10;;;;;;;15.43;6.97;;;;;;;;;;6306454;27;20512;-77
2023/05/14 05:11:10;;;;;;;14.50;7.05;;;;;;;;;;6332778;28;20082;-77
2023/05/14 05:14:10;;;;;;;13.43;6.22;;;;;;;;;;6325589;28;20028;-77
2023/05/14 05:17:10;;;;;;;12.50;6.82;;;;;;;;;;6332072;28;20543;-77
2023/05/14 05:20:11;;;;;;;10.55;5.97;;;;;;;;;;6324509;28;20027;-77
2023/05/14 05:23:11;;;;;;;11.87;5.73;;;;;;;;;;6321852;28;20626;-77
2023/05/14 05:26:11;;;;;;;10.60;4.80;;;;;;;;;;6315945;28;20489;-77
2023/05/14 05:29:12;;;;;;;8.80;4.33;;;;;;;;;;6338253;28;20028;-78
2023/05/14 05:32:12;;;;;;;8.73;4.93;;;;;;;;;;6336615;28;20026;-81
2023/05/14 05:35:12;;;;;;;10.40;4.13;;;;;;;;;;6331666;28;20034;-82
2023/05/14 05:38:14;;;;;;;6.93;4.47;;;;;;;;;;6335261;28;20656;-82
2023/05/14 05:41:14;;;;;;;7.13;4.22;;;;;;;;;;6313742;28;20031;-82
2023/05/14 05:44:14;;;;;;;7.73;3.70;;;;;;;;;;6326783;28;20031;-82
2023/05/14 05:47:15;;;;;;;7.53;4.00;;;;;;;;;;6335974;28;20051;-82
2023/05/14 05:50:16;;;;;;;6.65;3.97;;;;;;;;;;6337649;28;20044;-82
2023/05/14 05:53:16;;;;;;;4.67;2.77;;;;;;;;;;6327735;28;20049;-81
2023/05/14 05:56:16;;;;;;;6.57;3.10;;;;;;;;;;6335095;28;20032;-82
2023/05/14 05:59:16;;;;;;;8.13;3.43;;;;;;;;;;6339353;28;20022;-82
2023/05/14 06:02:17;;;;;;;5.87;2.67;;;;;;;;;;6338458;28;20074;-82
2023/05/14 06:05:18;;;;;;;5.18;2.35;;;;;;;;;;6327615;28;20529;-82
2023/05/14 06:08:18;;;;;;;4.40;2.50;;;;;;;;;;6328119;28;20019;-82
2023/05/14 06:11:18;;;;;;;4.50;2.47;;;;;;;;;;6331061;28;20024;-81
2023/05/14 06:14:18;;;;;;;3.10;2.20;;;;;;;;;;6328669;28;20024;-82
2023/05/14 06:17:19;;;;;;;5.47;2.43;;;;;;;;;;6331711;28;20111;-82
2023/05/14 06:20:19;;;;;;;4.53;1.93;;;;;;;;;;6319045;28;20015;-82
2023/05/14 06:23:20;;;;;;;4.47;2.17;;;;;;;;;;6311111;28;20043;-82
2023/05/14 06:26:20;;;;;;;4.55;2.83;;;;;;;;;;6332116;28;20277;-82
2023/05/14 06:29:20;;;;;;;3.15;2.20;;;;;;;;;;6323179;28;20470;-82
2023/05/14 06:32:21;;;;;;;3.30;2.28;;;;;;;;;;6334602;28;20040;-78
2023/05/14 06:35:22;;;;;;;3.30;1.90;;;;;;;;;;6330352;28;20020;-78
2023/05/14 06:38:22;;;;;;;2.38;2.00;;;;;;;;;;6320734;28;20470;-78
2023/05/14 06:41:23;;;;;;;3.07;2.00;;;;;;;;;;6308233;28;20090;-78
2023/05/14 06:44:23;;;;;;;3.23;2.10;;;;;;;;;;6328678;28;20019;-78
2023/05/14 06:47:23;;;;;;;3.00;2.08;;;;;;;;;;6321262;28;20036;-79
2023/05/14 06:50:23;;;;;;;4.13;2.40;;;;;;;;;;6326163;28;20051;-79
2023/05/14 06:53:23;;;;;;;3.73;1.77;;;;;;;;;;6322491;28;20051;-79
2023/05/14 06:56:27;;;;;;;3.83;2.33;;;;;;;;;;6326033;28;20378;-78
2023/05/14 06:59:27;;;;;;;5.57;2.00;;;;;;;;;;6331691;28;20386;-78
2023/05/14 07:02:27;;;;;;;1.97;1.53;;;;;;;;;;6327395;28;20020;-78
2023/05/14 07:05:27;;;;;;;4.40;1.77;;;;;;;;;;6323797;27;20033;-78
2023/05/14 07:08:28;;;;;;;3.60;1.83;;;;;;;;;;6339647;27;20066;-79
2023/05/14 07:11:28;;;;;;;2.53;1.57;;;;;;;;;;6344941;27;20058;-79
2023/05/14 07:14:28;;;;;;;3.40;1.77;;;;;;;;;;6315174;28;20498;-78
2023/05/14 07:17:28;;;;;;;3.93;1.90;;;;;;;;;;6330521;28;20027;-78
2023/05/14 07:20:29;;;;;;;3.33;1.87;;;;;;;;;;6329627;28;20056;-78
2023/05/14 07:23:29;;;;;;;3.20;2.03;;;;;;;;;;6327505;28;20044;-78
2023/05/14 07:26:30;;;;;;;3.03;1.70;;;;;;;;;;6332430;28;20016;-76
2023/05/14 07:29:33;;;;;;;2.65;1.65;;;;;;;;;;6332249;28;20081;-76
2023/05/14 07:32:33;;;;;;;2.15;1.67;;;;;;;;;;6338346;28;20012;-76
2023/05/14 07:35:35;;;;;;;3.47;1.83;;;;;;;;;;6326717;28;20020;-76
2023/05/14 07:38:35;;;;;;;;;;;;;;;;;;6337344;28;20027;-76
2023/05/14 07:41:36;;;;;;;1.33;1.10;;;;;;;;;;6333437;28;19908;-80
2023/05/14 07:44:36;;;;;;;;;;;;;;;;;;6335396;28;20027;-80
2023/05/14 07:47:37;;;;;;;2.35;1.60;;;;;;;;;;6331371;27;19907;-79
2023/05/14 07:50:38;;;;;;;1.75;1.60;;;;;;;;;;6326330;28;20036;-76
2023/05/14 07:53:38;;;;;;;2.40;1.50;;;;;;;;;;6310249;28;20059;-78
2023/05/14 07:56:38;;;;;;;4.97;2.80;;;;;;;;;;6327451;28;20064;-76
2023/05/14 07:59:39;;;;;;;3.73;2.50;;;;;;;;;;6326724;28;20024;-76
2023/05/14 08:02:39;;;;;;;2.90;1.67;;;;;;;;;;6332576;28;20135;-76
2023/05/14 08:05:39;;;;;;;3.53;1.70;;;;;;;;;;6334382;28;20249;-76
2023/05/14 08:08:40;;;;;;;3.80;2.67;;;;;;;;;;6335652;27;20578;-76
2023/05/14 08:11:40;;;;;;;1.83;1.63;;;;;;;;;;6332319;28;20098;-76
2023/05/14 08:14:40;;;;;;;3.40;2.17;;;;;;;;;;6336817;28;20055;-76
2023/05/14 08:17:40;;;;;;;2.47;1.67;;;;;;;;;;6321990;28;20382;-76
2023/05/14 08:20:40;;;;;;;2.97;2.20;;;;;;;;;;6321376;28;20014;-77
2023/05/14 08:23:41;;;;;;;5.90;2.20;;;;;;;;;;6335617;28;20389;-76
2023/05/14 08:26:41;;;;;;;3.27;1.93;;;;;;;;;;6320626;28;20047;-76
2023/05/14 08:29:41;;;;;;;4.15;2.30;;;;;;;;;;6335769;28;20083;-76
2023/05/14 08:32:41;;;;;;;4.25;2.55;;;;;;;;;;6334449;28;20028;-77
2023/05/14 08:35:41;;;;;;;4.13;2.27;;;;;;;;;;6331035;28;20042;-76
2023/05/14 08:38:43;;;;;;;4.57;2.58;;;;;;;;;;6337564;28;20107;-77
2023/05/14 08:41:44;;;;;;;4.38;2.20;;;;;;;;;;6323094;28;20016;-77
2023/05/14 08:44:48;;;;;;;3.00;2.00;;;;;;;;;;6335100;28;20018;-76
2023/05/14 08:47:49;;;;;;;3.10;2.40;;;;;;;;;;6336747;28;20051;-76
2023/05/14 08:50:49;;;;;;;3.88;2.10;;;;;;;;;;6322768;28;20510;-77
2023/05/14 08:53:50;;;;;;;3.97;3.10;;;;;;;;;;6327669;28;20024;-77
2023/05/14 08:56:51;;;;;;;4.20;3.05;;;;;;;;;;6320030;28;20027;-77
2023/05/14 08:59:54;;;;;;;3.38;2.53;;;;;;;;;;6338987;28;20059;-81
2023/05/14 09:02:54;;;;;;;4.18;2.58;;;;;;;;;;6325244;28;20016;-80
2023/05/14 09:05:55;;;;;;;6.30;2.78;;;;;;;;;;6336285;28;20032;-80
2023/05/14 09:08:55;;;;;;;3.35;2.38;;;;;;;;;;6332330;28;20019;-81
2023/05/14 09:11:55;;;;;;;4.83;2.67;;;;;;;;;;6325921;28;20026;-80
2023/05/14 09:14:56;;;;;;;4.93;2.77;;;;;;;;;;6321109;28;20103;-80
2023/05/14 09:17:56;;;;;;;5.07;2.63;;;;;;;;;;6320524;28;20028;-80
2023/05/14 09:20:56;;;;;;;9.20;2.77;;;;;;;;;;6325649;28;20020;-81
2023/05/14 09:23:57;;;;;;;6.00;2.90;;;;;;;;;;6330255;28;20024;-80
2023/05/14 09:26:57;;;;;;;5.50;2.90;;;;;;;;;;6329634;28;20019;-80
2023/05/14 09:30:05;;;;;;;4.30;2.65;;;;;;;;;;6338271;28;20039;-80
2023/05/14 09:33:09;;;;;;;5.45;2.35;;;;;;;;;;6336946;28;20020;-81
2023/05/14 09:36:09;;;;;;;6.15;3.13;;;;;;;;;;6307305;28;20106;-80
2023/05/14 09:39:09;;;;;;;5.38;3.10;;;;;;;;;;6321919;28;20034;-81
2023/05/14 09:42:09;;;;;;;5.43;2.88;;;;;;;;;;6329223;28;20027;-80
2023/05/14 09:45:10;;;;;;;7.10;2.73;;;;;;;;;;6329079;28;20023;-80
2023/05/14 09:48:10;;;;;;;6.53;2.77;;;;;;;;;;6334177;28;20024;-81
2023/05/14 09:51:11;;;;;;;5.20;2.60;;;;;;;;;;6333431;28;20285;-81
2023/05/14 09:54:11;;;;;;;9.85;2.95;;;;;;;;;;6319678;28;20022;-80
2023/05/14 09:57:12;;;;;;;4.77;2.90;;;;;;;;;;6331478;28;20040;-80
2023/05/14 10:00:12;;;;;;;5.00;3.05;;;;;;;;;;6318070;28;20054;-80
2023/05/14 10:03:13;;;;;;;6.93;3.10;;;;;;;;;;6311496;28;20020;-80
2023/05/14 10:06:15;;;;;;;4.45;2.53;;;;;;;;;;6334037;28;20028;-80
2023/05/14 10:09:18;;;;;;;5.63;3.00;;;;;;;;;;6323712;28;20020;-80
2023/05/14 10:12:19;;;;;;;3.45;2.70;;;;;;;;;;6323587;28;20064;-78
2023/05/14 10:15:20;;;;;;;;;;;;;;;;;;6323890;28;20019;-77
2023/05/14 10:18:21;;;;;;;5.03;3.10;;;;;;;;;;6341821;28;20356;-77
2023/05/14 10:21:22;;;;;;;5.78;2.83;;;;;;;;;;6306399;28;20023;-77
2023/05/14 10:24:23;;;;;;;6.03;2.45;;;;;;;;;;6337566;28;20681;-77
2023/05/14 10:27:23;;;;;;;4.13;2.88;;;;;;;;;;6321799;28;20031;-77
2023/05/14 10:30:24;;;;;;;3.87;2.23;;;;;;;;;;6339011;28;20065;-77
2023/05/14 10:33:24;;;;;;;3.07;2.53;;;;;;;;;;6328590;28;20013;-77
2023/05/14 10:36:25;;;;;;;3.53;2.30;;;;;;;;;;6322194;28;20020;-79
2023/05/14 10:39:45;;;;;;;3.33;2.33;;;;;;;;;;6333670;28;20059;-77
2023/05/14 10:42:46;;;;;;;4.55;2.35;;;;;;;;;;6312799;28;20556;-78
2023/05/14 10:45:46;;;;;;;6.20;2.93;;;;;;;;;;6338046;28;20019;-77
2023/05/14 10:48:47;;;;;;;3.23;2.20;;;;;;;;;;6338449;28;20040;-77
2023/05/14 10:51:48;;;;;;;6.05;2.90;;;;;;;;;;6313191;28;20032;-77
2023/05/14 10:54:50;;;;;;;6.53;2.60;;;;;;;;;;6326246;28;20082;-77
2023/05/14 10:57:51;;;;;;;4.97;2.78;;;;;;;;;;6339393;27;20118;-78
2023/05/14 11:00:53;;;;;;;3.95;2.42;;;;;;;;;;6315094;28;20026;-78
2023/05/14 11:03:57;;;;;;;4.00;3.05;;;;;;;;;;6326533;28;20107;-77
2023/05/14 11:06:57;;;;;;;4.25;2.95;;;;;;;;;;6344458;28;20037;-78
2023/05/14 11:09:59;;;;;;;6.33;2.57;;;;;;;;;;6330700;28;20471;-80
2023/05/14 11:12:59;;;;;;;3.17;2.45;;;;;;;;;;6331791;28;20032;-81
2023/05/14 11:16:01;;;;;;;4.13;2.03;;;;;;;;;;6330948;28;20024;-81
2023/05/14 11:19:02;;;;;;;6.88;2.58;;;;;;;;;;6325623;28;20032;-81
2023/05/14 11:22:02;;;;;;;3.53;2.28;;;;;;;;;;6325721;28;20263;-81
2023/05/14 11:25:03;;;;;;;5.00;2.47;;;;;;;;;;6337104;27;20132;-81
2023/05/14 11:28:03;;;;;;;5.07;2.77;;;;;;;;;;6333329;28;20389;-80
2023/05/14 11:31:04;;;;;;;2.20;2.00;;;;;;;;;;6337309;27;20838;-81
2023/05/14 11:34:05;;;;;;;3.33;2.00;;;;;;;;;;6328885;28;20444;-81
2023/05/14 11:37:06;;;;;;;5.03;1.73;;;;;;;;;;6332205;28;20038;-81
2023/05/14 11:40:09;;;;;;;7.47;2.50;;;;;;;;;;6317757;28;20850;-80
2023/05/14 11:43:09;;;;;;;3.83;2.50;;;;;;;;;;6343943;27;20110;-81
2023/05/14 11:46:15;;;;;;;6.20;2.25;;;;;;;;;;6331290;28;20019;-80
2023/05/14 11:49:15;;;;;;;3.13;2.08;;;;;;;;;;6318797;28;20505;-81
2023/05/14 11:52:18;;;;;;;6.77;2.30;;;;;;;;;;6334761;28;20019;-81
2023/05/14 11:55:18;;;;;;;2.08;1.60;;;;;;;;;;6340529;28;20363;-81
2023/05/14 11:58:19;;;;;;;2.40;1.67;;;;;;;;;;6316247;28;20047;-81
2023/05/14 12:01:19;;;;;;;3.17;1.70;;;;;;;;;;6335227;28;20061;-81
2023/05/14 12:04:21;;;;;;;3.13;1.73;;;;;;;;;;6338366;28;20047;-81
2023/05/14 12:07:21;;;;;;;2.42;1.52;;;;;;;;;;6319985;28;20351;-81
2023/05/14 12:10:21;;;;;;;4.70;1.88;;;;;;;;;;6326526;27;20020;-81
2023/05/14 12:13:24;;;;;;;4.30;2.10;;;;;;;;;;6311563;28;20081;-81
2023/05/14 12:16:29;;;;;;;3.35;1.75;;;;;;;;;;6330622;28;20019;-81
2023/05/14 12:19:29;;;;;;;4.13;1.90;;;;;;;;;;6334197;28;20012;-81
2023/05/14 12:22:30;;;;;;;4.33;1.90;;;;;;;;;;6334037;28;20466;-77
2023/05/14 12:25:30;;;;;;;2.57;1.60;;;;;;;;;;6334044;28;20091;-77
2023/05/14 12:28:30;;;;;;;2.87;1.33;;;;;;;;;;6331679;28;20097;-77
2023/05/14 12:31:35;;;;;;;1.43;1.33;;;;;;;;;;6311207;28;20386;-77
2023/05/14 12:34:36;;;;;;;3.35;1.90;;;;;;;;;;6326595;28;20019;-77
2023/05/14 12:37:38;;;;;;;6.75;1.90;;;;;;;;;;6328847;28;20771;-77
2023/05/14 12:40:39;;;;;;;2.97;1.70;;;;;;;;;;6326901;28;20095;-77
2023/05/14 12:43:41;;;;;;;8.20;1.60;;;;;;;;;;6326271;28;20014;-77
2023/05/14 12:46:41;;;;;;;1.95;1.40;;;;;;;;;;6334970;28;20474;-77
2023/05/14 12:49:41;;;;;;;4.10;1.60;;;;;;;;;;6332061;27;20051;-77
2023/05/14 12:52:42;;;;;;;3.63;1.73;;;;;;;;;;6302253;28;20058;-77
2023/05/14 12:55:42;;;;;;;2.37;1.57;;;;;;;;;;6324594;27;21490;-77
2023/05/14 12:58:42;;;;;;;3.97;1.77;;;;;;;;;;6338308;27;20032;-77
2023/05/14 13:01:42;;;;;;;2.83;1.30;;;;;;;;;;6341522;27;20024;-77
2023/05/14 13:04:43;;;;;;;1.70;1.50;;;;;;;;;;6328985;28;20020;-77
2023/05/14 13:07:43;;;;;;;2.83;1.67;;;;;;;;;;6327343;28;20024;-76
2023/05/14 13:10:43;;;;;;;2.78;1.58;;;;;;;;;;6313487;28;20116;-77
2023/05/14 13:13:43;;;;;;;3.07;1.50;;;;;;;;;;6325974;28;20019;-77
2023/05/14 13:16:44;;;;;;;4.60;1.75;;;;;;;;;;6321874;28;20095;-76
2023/05/14 13:19:44;;;;;;;5.43;1.73;;;;;;;;;;6322059;28;20058;-76
2023/05/14 13:22:44;;;;;;;2.40;1.70;;;;;;;;;;6314296;28;20023;-76
2023/05/14 13:25:44;;;;;;;5.40;2.20;;;;;;;;;;6328726;28;20020;-77
2023/05/14 13:28:45;;;;;;;5.33;1.40;;;;;;;;;;6332634;28;20046;-76
2023/05/14 13:31:45;;;;;;;4.03;1.90;;;;;;;;;;6333476;28;20023;-77
2023/05/14 13:34:45;;;;;;;2.50;1.80;;;;;;;;;;6335375;28;20008;-76
2023/05/14 13:37:45;;;;;;;1.85;1.70;;;;;;;;;;6325544;28;20027;-76
2023/05/14 13:40:46;;;;;;;3.70;1.70;;;;;;;;;;6330637;28;20032;-81
2023/05/14 13:43:46;;;;;;;2.72;1.70;;;;;;;;;;6326152;28;20488;-81
2023/05/14 13:46:46;;;;;;;2.10;1.40;;;;;;;;;;6341622;28;20027;-80
2023/05/14 13:49:47;;;;;;;2.00;1.57;;;;;;;;;;6339552;28;20402;-81
2023/05/14 13:52:47;;;;;;;4.63;1.97;;;;;;;;;;6321134;28;20107;-81
2023/05/14 13:55:47;;;;;;;2.80;2.37;;;;;;;;;;6333841;28;20028;-81
2023/05/14 13:58:48;;;;;;;3.77;1.60;;;;;;;;;;6301124;28;20675;-81
2023/05/14 14:01:49;;;;;;;2.83;1.50;;;;;;;;;;6323901;28;20254;-81
2023/05/14 14:04:49;;;;;;;3.92;1.50;;;;;;;;;;6323890;28;20024;-80
2023/05/14 14:07:50;;;;;;;3.07;1.90;;;;;;;;;;6330719;28;20466;-81
2023/05/14 14:10:50;;;;;;;3.40;2.17;;;;;;;;;;6327047;28;20500;-81
2023/05/14 14:13:50;;;;;;;3.23;2.03;;;;;;;;;;6330199;28;20024;-80
2023/05/14 14:16:51;;;;;;;3.00;1.70;;;;;;;;;;6322249;28;20032;-80
2023/05/14 14:19:51;;;;;;;1.77;1.58;;;;;;;;;;6322548;28;20111;-80
2023/05/14 14:22:51;;;;;;;3.87;1.77;;;;;;;;;;6321561;28;20016;-81
2023/05/14 14:25:52;;;;;;;3.57;1.80;;;;;;;;;;6322821;28;20664;-81
2023/05/14 14:28:52;;;;;;;7.27;2.20;;;;;;;;;;6333017;28;20398;-81
2023/05/14 14:31:52;;;;;;;2.47;1.57;;;;;;;;;;6336715;28;20147;-80
2023/05/14 14:34:53;;;;;;;2.33;1.47;;;;;;;;;;6330426;28;20402;-80
2023/05/14 14:37:54;;;;;;;12.47;2.63;;;;;;;;;;6326430;28;20020;-80
2023/05/14 14:40:55;;;;;;;2.55;2.00;;;;;;;;;;6323599;28;20021;-80
2023/05/14 14:43:56;;;;;;;;;;;;;;;;;;6331421;28;20356;-80
2023/05/14 14:46:56;;;;;;;2.60;1.73;;;;;;;;;;6319962;28;19908;-80
2023/05/14 14:49:56;;;;;;;2.67;1.53;;;;;;;;;;6327364;28;20126;-80
2023/05/14 14:52:56;;;;;;;6.70;1.60;;;;;;;;;;6329172;28;20024;-80
2023/05/14 14:55:57;;;;;;;5.10;1.60;;;;;;;;;;6310906;28;20065;-80
2023/05/14 14:58:57;;;;;;;3.47;1.43;;;;;;;;;;6329936;28;20035;-80
2023/05/14 15:01:58;;;;;;;2.43;1.53;;;;;;;;;;6320036;28;20008;-80
2023/05/14 15:04:58;;;;;;;5.53;1.43;;;;;;;;;;6331363;28;20124;-81
2023/05/14 15:07:59;;;;;;;1.92;1.20;;;;;;;;;;6332344;28;20542;-80
2023/05/14 15:10:59;;;;;;;3.60;1.27;;;;;;;;;;6335099;28;20027;-81
2023/05/14 15:13:59;;;;;;;4.17;1.60;;;;;;;;;;6332937;28;20035;-81
2023/05/14 15:17:00;;;;;;;2.40;1.70;;;;;;;;;;6317970;28;20024;-81
2023/05/14 15:20:00;;;;;;;2.20;1.80;;;;;;;;;;6340441;28;20015;-80
2023/05/14 15:23:00;;;;;;;1.40;1.30;;;;;;;;;;6322188;28;20027;-82
2023/05/14 15:26:00;;;;;;;5.10;1.20;;;;;;;;;;6322989;28;20483;-82
2023/05/14 15:29:01;;;;;;;2.42;1.40;;;;;;;;;;6329552;28;20028;-82
2023/05/14 15:32:01;;;;;;;3.87;1.60;;;;;;;;;;6338826;27;20030;-81
2023/05/14 15:35:01;;;;;;;3.93;1.50;;;;;;;;;;6337799;28;20026;-81
2023/05/14 15:38:02;;;;;;;5.17;2.10;;;;;;;;;;6337186;27;20027;-82
2023/05/14 15:41:04;;;;;;;2.13;1.53;;;;;;;;;;6343590;28;20020;-81
2023/05/14 15:44:04;;;;;;;2.63;1.70;;;;;;;;;;6343726;28;20016;-83
2023/05/14 15:47:04;;;;;;;3.57;1.80;;;;;;;;;;6344035;28;20020;-81
2023/05/14 15:50:05;;;;;;;3.10;1.90;;;;;;;;;;6336359;28;20040;-82
2023/05/14 15:53:05;;;;;;;4.60;1.70;;;;;;;;;;6321190;28;20491;-81
2023/05/14 15:56:06;;;;;;;3.13;2.00;;;;;;;;;;6304701;28;20648;-81
2023/05/14 15:59:07;;;;;;;3.92;2.10;;;;;;;;;;6321500;28;20035;-81
2023/05/14 16:02:08;;;;;;;6.20;2.27;;;;;;;;;;6336587;27;20012;-81
2023/05/14 16:05:09;;;;;;;4.78;2.00;;;;;;;;;;6332118;28;20047;-81
2023/05/14 16:08:09;;;;;;;5.73;2.00;;;;;;;;;;6340179;27;20477;-81
2023/05/14 16:11:09;;;;;;;4.87;2.10;;;;;;;;;;6333459;28;20028;-80
2023/05/14 16:14:09;;;;;;;2.60;1.53;;;;;;;;;;6324240;28;20444;-81
2023/05/14 16:17:11;;;;;;;4.50;1.80;;;;;;;;;;6324321;28;20027;-81
2023/05/14 16:20:12;;;;;;;5.68;2.10;;;;;;;;;;6329304;28;20012;-80
2023/05/14 16:23:12;;;;;;;2.33;1.83;;;;;;;;;;6329160;27;20367;-81
2023/05/14 16:26:13;;;;;;;4.27;2.10;;;;;;;;;;6322653;28;20039;-81
2023/05/14 16:29:13;;;;;;;4.57;2.07;;;;;;;;;;6316692;28;20020;-81
2023/05/14 16:32:13;;;;;;;3.33;2.20;;;;;;;;;;6334192;28;20024;-80
2023/05/14 16:35:14;;;;;;;12.07;2.63;;;;;;;;;;6341689;27;20023;-82
2023/05/14 16:38:14;;;;;;;3.00;2.10;;;;;;;;;;6336862;28;20020;-82
2023/05/14 16:41:14;;;;;;;4.53;2.23;;;;;;;;;;6342399;27;20036;-82
2023/05/14 16:44:15;;;;;;;5.17;2.33;;;;;;;;;;6328756;28;20016;-82
2023/05/14 16:47:16;;;;;;;3.27;2.20;;;;;;;;;;6321352;28;20378;-82
2023/05/14 16:50:17;;;;;;;4.47;2.45;;;;;;;;;;6326112;28;20051;-82
2023/05/14 16:53:17;;;;;;;3.27;2.30;;;;;;;;;;6329492;28;20072;-81
2023/05/14 16:56:20;;;;;;;6.97;3.23;;;;;;;;;;6331062;28;20142;-82
2023/05/14 16:59:20;;;;;;;2.97;2.40;;;;;;;;;;6328345;28;20031;-82
2023/05/14 17:02:20;;;;;;;7.30;2.20;;;;;;;;;;6328620;28;20023;-80
2023/05/14 17:05:21;;;;;;;4.97;2.75;;;;;;;;;;6324074;28;20125;-81
2023/05/14 17:08:22;;;;;;;20.30;3.47;;;;;;;;;;6330230;28;20020;-79
2023/05/14 17:11:22;;;;;;;3.13;2.03;;;;;;;;;;6320755;28;20481;-77
2023/05/14 17:14:22;;;;;;;4.60;2.30;;;;;;;;;;6340343;28;20490;-78
2023/05/14 17:17:22;;;;;;;2.77;2.20;;;;;;;;;;6329124;28;20027;-78
2023/05/14 17:20:23;;;;;;;5.55;2.17;;;;;;;;;;6320013;28;20095;-78
2023/05/14 17:23:23;;;;;;;4.00;2.20;;;;;;;;;;6327199;28;20020;-78
2023/05/14 17:26:25;;;;;;;7.03;2.47;;;;;;;;;;6324477;28;20027;-78
2023/05/14 17:29:25;;;;;;;;;;;;;;;;;;6332263;28;20493;-78
2023/05/14 17:32:25;;;;;;;4.15;2.72;;;;;;;;;;6338031;28;19961;-82
2023/05/14 17:35:26;;;;;;;8.23;3.33;;;;;;;;;;6333659;28;20007;-82
2023/05/14 17:38:28;;;;;;;3.95;1.92;;;;;;;;;;6342322;28;20039;-83
2023/05/14 17:41:28;;;;;;;4.30;2.08;;;;;;;;;;6324100;28;20077;-81
2023/05/14 17:44:28;;;;;;;3.90;2.10;;;;;;;;;;6343875;28;20020;-82
2023/05/14 17:47:29;;;;;;;5.40;2.17;;;;;;;;;;6340013;28;20012;-82
2023/05/14 17:50:29;;;;;;;5.47;2.43;;;;;;;;;;6327798;28;20052;-81
2023/05/14 17:53:29;;;;;;;7.07;2.43;;;;;;;;;;6337264;28;20565;-81
2023/05/14 17:56:29;;;;;;;6.47;3.00;;;;;;;;;;6320585;28;20027;-83